Alpha, Idaho
Current Conditions -  °F | °C
As of 4:51 AM on Sunday 23 Nov 2014 (Local Time) from KMYL Reporting Station
Light Snow Light Snow  
Wind Chill: 25°   Ceiling: 5000
Heat Index: 25°   Visibility: 9mi
Dew Point: 22°   Wind: 0mph
Humidity: 88%   Direction: NA
Pressure: 30.11"   Gusts: NA
Location:  44.4236°N, 115.8°W
Report Text: KMYL 231151Z AUTO 00000KT 9SM -SN SCT045 OVC050 M04/M06 A3011 RMK AO2 SNB1053 SLP223 P0000 60000 70011 T10391056 11011 21067 51023
Loading
Personal Weather Stations






























Interactive Weather Map New forecast layout! Learn more

10-Day Weather Forecast

Advertisements
Track Severe Weather on mobile